createdAt,value
2023-06-17T00:04:38.341Z,101432.75
2023-06-17T00:10:25.118Z,101433.88
2023-06-17T00:16:13.973Z,101424.25
2023-06-17T00:22:02.860Z,101428.19
2023-06-17T00:27:52.111Z,101423.50
2023-06-17T00:33:41.446Z,101410.91
2023-06-17T00:39:29.656Z,101399.38
2023-06-17T00:45:18.630Z,101403.91
2023-06-17T00:51:15.796Z,101393.31
2023-06-17T00:57:17.138Z,101382.38
2023-06-17T01:03:06.588Z,101380.44
2023-06-17T01:09:02.745Z,101375.97
2023-06-17T01:14:50.797Z,101377.81
2023-06-17T01:20:37.811Z,101378.16
2023-06-17T01:26:29.433Z,101385.91
2023-06-17T01:32:18.004Z,101384.31
2023-06-17T01:38:22.243Z,101356.66
2023-06-17T01:44:09.969Z,101339.59
2023-06-17T01:49:59.919Z,101348.38
2023-06-17T01:55:47.050Z,101341.63
2023-06-17T02:01:33.893Z,101334.34
2023-06-17T02:07:26.851Z,101326.63
2023-06-17T02:13:13.746Z,101330.78
2023-06-17T02:19:03.538Z,101337.00
2023-06-17T02:24:50.817Z,101319.91
2023-06-17T02:30:37.547Z,101315.56
2023-06-17T02:36:25.795Z,101328.25
2023-06-17T02:42:16.438Z,101310.03
2023-06-17T02:48:03.802Z,101305.47
2023-06-17T02:53:51.257Z,101297.69
2023-06-17T02:59:41.978Z,101297.84
2023-06-17T03:05:31.658Z,101289.66
2023-06-17T03:11:19.686Z,101277.59
2023-06-17T03:17:07.354Z,101265.72
2023-06-17T03:22:55.227Z,101268.47
2023-06-17T03:28:42.082Z,101265.13
2023-06-17T03:34:28.875Z,101257.31
2023-06-17T03:40:16.669Z,101263.56
2023-06-17T03:46:03.860Z,101242.06
2023-06-17T03:51:51.176Z,101261.34
2023-06-17T03:57:38.260Z,101264.22
2023-06-17T04:03:26.636Z,101258.00
2023-06-17T04:09:15.416Z,101250.97
2023-06-17T04:15:02.341Z,101242.16
2023-06-17T04:20:50.743Z,101235.72
2023-06-17T04:26:38.980Z,101231.88
2023-06-17T04:32:28.702Z,101219.75
2023-06-17T04:38:23.247Z,101217.69
2023-06-17T04:44:11.606Z,101199.94
2023-06-17T04:49:59.083Z,101201.47
2023-06-17T04:55:46.052Z,101194.28
2023-06-17T05:01:33.311Z,101181.84
2023-06-17T05:07:22.489Z,101183.09
2023-06-17T05:13:09.277Z,101184.25
2023-06-17T05:18:56.784Z,101177.94
2023-06-17T05:24:44.669Z,101190.81
2023-06-17T05:30:31.643Z,101192.81
2023-06-17T05:36:26.214Z,101187.50
2023-06-17T05:42:13.875Z,101181.25
2023-06-17T05:48:01.862Z,101179.22
2023-06-17T05:53:51.736Z,101184.16
2023-06-17T05:59:39.027Z,101184.66
2023-06-17T06:05:26.115Z,101179.81
2023-06-17T06:11:13.138Z,101180.88
2023-06-17T06:17:00.376Z,101183.03
2023-06-17T06:22:48.028Z,101183.28
2023-06-17T06:28:34.916Z,101192.81
2023-06-17T06:34:23.423Z,101188.25
2023-06-17T06:40:10.997Z,101194.09
2023-06-17T06:45:59.262Z,101186.53
2023-06-17T06:51:49.823Z,101191.44
2023-06-17T06:57:38.058Z,101180.22
2023-06-17T07:03:25.124Z,101180.97
2023-06-17T07:09:12.759Z,101187.59
2023-06-17T07:15:00.271Z,101183.41
2023-06-17T07:20:48.912Z,101189.41
2023-06-17T07:26:39.752Z,101172.50
2023-06-17T07:32:26.800Z,101180.06
2023-06-17T07:38:14.555Z,101173.88
2023-06-17T07:44:01.630Z,101185.00
2023-06-17T07:49:49.209Z,101185.00
2023-06-17T07:55:37.930Z,101187.16
2023-06-17T08:01:25.660Z,101192.31
2023-06-17T08:07:17.214Z,101193.09
2023-06-17T08:13:04.534Z,101197.22
2023-06-17T08:18:53.571Z,101196.53
2023-06-17T08:24:42.373Z,101183.97
2023-06-17T08:30:31.808Z,101179.38
2023-06-17T08:36:18.523Z,101165.41
2023-06-17T08:42:08.747Z,101170.16
2023-06-17T08:47:56.165Z,101170.38
2023-06-17T08:53:45.797Z,101167.16
2023-06-17T08:59:32.806Z,101157.91
2023-06-17T09:05:21.165Z,101159.56
2023-06-17T09:11:08.001Z,101149.22
2023-06-17T09:16:54.956Z,101139.69
2023-06-17T09:22:44.577Z,101138.41
2023-06-17T09:28:32.708Z,101135.09
2023-06-17T09:34:21.429Z,101139.25
2023-06-17T09:40:09.558Z,101147.03
2023-06-17T09:46:01.502Z,101142.59
2023-06-17T09:51:48.839Z,101127.84
2023-06-17T09:57:38.070Z,101131.72
2023-06-17T10:03:30.102Z,101137.34
2023-06-17T10:09:26.199Z,101118.22
2023-06-17T10:15:15.963Z,101112.56
2023-06-17T10:21:04.581Z,101116.78
2023-06-17T10:26:52.294Z,101101.81
2023-06-17T10:32:39.773Z,101096.97
2023-06-17T10:38:31.762Z,101088.97
2023-06-17T10:44:22.106Z,101080.94
2023-06-17T10:50:13.281Z,101085.16
2023-06-17T10:56:01.951Z,101072.66
2023-06-17T11:01:49.857Z,101078.19
2023-06-17T11:07:37.288Z,101068.09
2023-06-17T11:13:24.259Z,101074.94
2023-06-17T11:19:15.080Z,101067.00
2023-06-17T11:25:02.259Z,101041.72
2023-06-17T11:30:51.009Z,101044.09
2023-06-17T11:36:38.197Z,101049.22
2023-06-17T11:42:27.612Z,101034.91
2023-06-17T11:48:14.363Z,101048.91
2023-06-17T11:54:05.691Z,101054.91
2023-06-17T11:59:58.765Z,101036.03
2023-06-17T12:05:45.692Z,101041.28
2023-06-17T12:11:36.925Z,101041.88
2023-06-17T12:17:26.838Z,101023.13
2023-06-17T12:23:13.900Z,101014.50
2023-06-17T12:29:11.664Z,101023.22
2023-06-17T12:35:09.123Z,101016.63
2023-06-17T12:40:56.610Z,101009.09
2023-06-17T12:46:45.567Z,101027.63
2023-06-17T12:52:32.492Z,101019.25
2023-06-17T12:58:20.789Z,101033.19
2023-06-17T13:04:08.390Z,101025.13
2023-06-17T13:09:57.206Z,101025.09
2023-06-17T13:15:48.607Z,101016.44
2023-06-17T13:21:35.684Z,101013.38
2023-06-17T13:27:22.506Z,101004.84
2023-06-17T13:33:09.313Z,100991.44
2023-06-17T13:38:56.408Z,100998.50
2023-06-17T13:44:45.478Z,101004.34
2023-06-17T13:50:37.584Z,101008.47
2023-06-17T13:56:29.507Z,101013.38
2023-06-17T14:02:16.827Z,101006.34
2023-06-17T14:08:08.659Z,101002.03
2023-06-17T14:14:08.885Z,100992.75
2023-06-17T14:19:55.656Z,100995.81
2023-06-17T14:25:42.622Z,100993.56
2023-06-17T14:31:34.397Z,100979.22
2023-06-17T14:37:25.442Z,100987.56
2023-06-17T14:43:15.498Z,100966.94
2023-06-17T14:49:03.228Z,100976.34
2023-06-17T14:54:54.913Z,100975.16
2023-06-17T15:00:42.335Z,100970.22
2023-06-17T15:06:30.624Z,100964.03
2023-06-17T15:12:27.475Z,100955.03
2023-06-17T15:18:17.124Z,100955.47
2023-06-17T15:24:04.337Z,100947.69
2023-06-17T15:29:51.307Z,100952.22
2023-06-17T15:35:38.123Z,100947.97
2023-06-17T15:41:27.176Z,100938.97
2023-06-17T15:47:16.148Z,100951.91
2023-06-17T15:53:07.723Z,100933.22
2023-06-17T15:58:55.141Z,100934.88
2023-06-17T16:04:42.614Z,100939.13
2023-06-17T16:10:31.386Z,100936.22
2023-06-17T16:16:25.445Z,100931.84
2023-06-17T16:23:07.994Z,100923.81
2023-06-17T16:28:57.233Z,100914.16
2023-06-17T16:34:44.377Z,100902.75
2023-06-17T16:40:31.351Z,100897.91
2023-06-17T16:46:18.808Z,100899.78
2023-06-17T16:52:05.963Z,100893.44
2023-06-17T16:57:54.920Z,100898.91
2023-06-17T17:03:41.823Z,100888.47
2023-06-17T17:09:29.110Z,100897.41
2023-06-17T17:15:17.253Z,100894.84
2023-06-17T17:21:04.164Z,100889.19
2023-06-17T17:26:52.924Z,100878.13
2023-06-17T17:32:39.699Z,100871.94
2023-06-17T17:38:28.498Z,100879.22
2023-06-17T17:44:15.287Z,100881.72
2023-06-17T17:50:02.328Z,100892.00
2023-06-17T17:55:49.169Z,100893.88
2023-06-17T18:01:35.918Z,100901.91
2023-06-17T18:07:22.654Z,100894.88
2023-06-17T18:13:12.061Z,100897.28
2023-06-17T18:18:58.899Z,100892.44
2023-06-17T18:24:46.130Z,100895.63
2023-06-17T18:30:32.988Z,100899.72
2023-06-17T18:36:20.314Z,100906.00
2023-06-17T18:42:09.842Z,100894.59
2023-06-17T18:47:56.909Z,100895.53
2023-06-17T18:53:46.593Z,100893.63
2023-06-17T18:59:33.711Z,100891.13
2023-06-17T19:05:21.134Z,100883.84
2023-06-17T19:11:08.857Z,100880.59
2023-06-17T19:16:56.579Z,100882.16
2023-06-17T19:22:44.203Z,100880.59
2023-06-17T19:28:39.883Z,100876.72
2023-06-17T19:34:32.606Z,100888.84
2023-06-17T19:40:20.324Z,100893.88
2023-06-17T19:46:09.810Z,100899.75
2023-06-17T19:52:01.014Z,100902.31
2023-06-17T19:57:47.994Z,100892.81
2023-06-17T20:03:35.538Z,100899.09
2023-06-17T20:09:22.840Z,100904.22
2023-06-17T20:15:10.381Z,100911.78
2023-06-17T20:20:57.731Z,100903.97
2023-06-17T20:26:44.924Z,100907.56
2023-06-17T20:32:35.143Z,100912.19
2023-06-17T20:38:22.198Z,100920.53
2023-06-17T20:44:13.438Z,100914.53
2023-06-17T20:50:03.787Z,100916.25
2023-06-17T20:55:52.324Z,100928.59
2023-06-17T21:01:39.899Z,100926.66
2023-06-17T21:07:26.627Z,100929.09
2023-06-17T21:13:16.624Z,100925.53
2023-06-17T21:19:09.843Z,100925.59
2023-06-17T21:24:56.600Z,100922.09
2023-06-17T21:30:43.899Z,100917.38
2023-06-17T21:36:31.264Z,100901.91
2023-06-17T21:42:20.857Z,100906.75
2023-06-17T21:48:13.513Z,100907.84
2023-06-17T21:54:02.889Z,100918.91
2023-06-17T21:59:49.720Z,100911.53
2023-06-17T22:05:44.923Z,100888.84
2023-06-17T22:11:54.218Z,100889.53
2023-06-17T22:17:54.114Z,100883.66
2023-06-17T22:23:55.187Z,100877.03
2023-06-17T22:30:12.459Z,100876.91
2023-06-17T22:36:12.380Z,100873.78
2023-06-17T22:41:59.706Z,100868.81
2023-06-17T22:47:50.308Z,100870.81
2023-06-17T22:53:37.386Z,100873.69
2023-06-17T22:59:27.760Z,100854.03
2023-06-17T23:05:17.047Z,100857.06
2023-06-17T23:11:12.841Z,100860.06
2023-06-17T23:16:59.663Z,100858.00
2023-06-17T23:22:52.854Z,100851.88
2023-06-17T23:29:04.923Z,100853.63
2023-06-17T23:35:23.468Z,100848.66
2023-06-17T23:47:38.492Z,100852.06
2023-06-17T23:48:57.229Z,100860.25
2023-06-17T23:53:27.245Z,100858.63
2023-06-17T23:59:13.867Z,100864.94
